sensor_id;sensor_type;location;lat;lon;timestamp;P1;durP1;ratioP1;P2;durP2;ratioP2
71368;SDS011;59175;53.214;5.728;2022-11-22T00:02:16;14.43;;;4.97;;
71368;SDS011;59175;53.214;5.728;2022-11-22T00:04:41;18.90;;;4.03;;
71368;SDS011;59175;53.214;5.728;2022-11-22T00:07:06;16.97;;;5.57;;
71368;SDS011;59175;53.214;5.728;2022-11-22T00:09:32;16.45;;;5.43;;
71368;SDS011;59175;53.214;5.728;2022-11-22T00:11:57;9.27;;;3.45;;
71368;SDS011;59175;53.214;5.728;2022-11-22T00:14:22;6.37;;;3.37;;
71368;SDS011;59175;53.214;5.728;2022-11-22T00:16:47;13.33;;;4.77;;
71368;SDS011;59175;53.214;5.728;2022-11-22T00:19:14;9.03;;;2.13;;
71368;SDS011;59175;53.214;5.728;2022-11-22T00:21:39;9.17;;;3.87;;
71368;SDS011;59175;53.214;5.728;2022-11-22T00:24:04;13.63;;;2.47;;
71368;SDS011;59175;53.214;5.728;2022-11-22T00:26:30;11.98;;;4.05;;
71368;SDS011;59175;53.214;5.728;2022-11-22T00:28:55;10.23;;;3.93;;
71368;SDS011;59175;53.214;5.728;2022-11-22T00:31:20;11.50;;;4.23;;
71368;SDS011;59175;53.214;5.728;2022-11-22T00:33:46;17.67;;;4.33;;
71368;SDS011;59175;53.214;5.728;2022-11-22T00:36:11;9.17;;;2.90;;
71368;SDS011;59175;53.214;5.728;2022-11-22T00:38:36;13.63;;;3.80;;
71368;SDS011;59175;53.214;5.728;2022-11-22T00:41:01;11.77;;;3.23;;
71368;SDS011;59175;53.214;5.728;2022-11-22T00:43:27;11.10;;;3.73;;
71368;SDS011;59175;53.214;5.728;2022-11-22T00:45:52;9.40;;;2.63;;
71368;SDS011;59175;53.214;5.728;2022-11-22T00:48:17;7.33;;;3.10;;
71368;SDS011;59175;53.214;5.728;2022-11-22T00:50:42;3.65;;;1.75;;
71368;SDS011;59175;53.214;5.728;2022-11-22T00:53:07;9.77;;;3.10;;
71368;SDS011;59175;53.214;5.728;2022-11-22T00:55:32;15.00;;;3.83;;
71368;SDS011;59175;53.214;5.728;2022-11-22T00:57:58;8.93;;;2.63;;
71368;SDS011;59175;53.214;5.728;2022-11-22T01:00:23;9.13;;;3.10;;
71368;SDS011;59175;53.214;5.728;2022-11-22T01:02:48;12.67;;;4.70;;
71368;SDS011;59175;53.214;5.728;2022-11-22T01:05:13;7.00;;;2.57;;
71368;SDS011;59175;53.214;5.728;2022-11-22T01:07:38;14.27;;;2.87;;
71368;SDS011;59175;53.214;5.728;2022-11-22T01:10:04;7.33;;;3.53;;
71368;SDS011;59175;53.214;5.728;2022-11-22T01:12:29;10.95;;;3.78;;
71368;SDS011;59175;53.214;5.728;2022-11-22T01:14:55;12.80;;;3.50;;
71368;SDS011;59175;53.214;5.728;2022-11-22T01:17:20;7.90;;;2.47;;
71368;SDS011;59175;53.214;5.728;2022-11-22T01:19:45;8.47;;;2.40;;
71368;SDS011;59175;53.214;5.728;2022-11-22T01:22:10;13.80;;;2.70;;
71368;SDS011;59175;53.214;5.728;2022-11-22T01:24:35;11.77;;;2.33;;
71368;SDS011;59175;53.214;5.728;2022-11-22T01:27:01;10.07;;;2.75;;
71368;SDS011;59175;53.214;5.728;2022-11-22T01:29:26;13.52;;;3.47;;
71368;SDS011;59175;53.214;5.728;2022-11-22T01:31:51;9.43;;;3.33;;
71368;SDS011;59175;53.214;5.728;2022-11-22T01:34:16;6.70;;;2.30;;
71368;SDS011;59175;53.214;5.728;2022-11-22T01:36:41;8.40;;;2.80;;
71368;SDS011;59175;53.214;5.728;2022-11-22T01:39:07;7.40;;;2.03;;
71368;SDS011;59175;53.214;5.728;2022-11-22T01:41:32;9.30;;;3.17;;
71368;SDS011;59175;53.214;5.728;2022-11-22T01:43:57;10.50;;;3.13;;
71368;SDS011;59175;53.214;5.728;2022-11-22T01:48:59;10.93;;;3.45;;
71368;SDS011;59175;53.214;5.728;2022-11-22T01:51:33;9.05;;;3.75;;
71368;SDS011;59175;53.214;5.728;2022-11-22T01:53:59;10.85;;;3.30;;
71368;SDS011;59175;53.214;5.728;2022-11-22T01:56:26;6.00;;;1.77;;
71368;SDS011;59175;53.214;5.728;2022-11-22T01:58:55;5.90;;;2.45;;
71368;SDS011;59175;53.214;5.728;2022-11-22T02:01:21;9.18;;;2.13;;
71368;SDS011;59175;53.214;5.728;2022-11-22T02:03:46;7.77;;;1.70;;
71368;SDS011;59175;53.214;5.728;2022-11-22T02:06:13;5.03;;;1.48;;
71368;SDS011;59175;53.214;5.728;2022-11-22T02:08:41;8.27;;;2.35;;
71368;SDS011;59175;53.214;5.728;2022-11-22T02:11:08;4.63;;;1.30;;
71368;SDS011;59175;53.214;5.728;2022-11-22T02:13:35;10.15;;;2.55;;
71368;SDS011;59175;53.214;5.728;2022-11-22T02:16:03;11.57;;;3.30;;
71368;SDS011;59175;53.214;5.728;2022-11-22T02:18:28;5.80;;;2.23;;
71368;SDS011;59175;53.214;5.728;2022-11-22T02:20:53;8.27;;;2.77;;
71368;SDS011;59175;53.214;5.728;2022-11-22T02:25:53;8.38;;;2.17;;
71368;SDS011;59175;53.214;5.728;2022-11-22T02:28:19;6.10;;;2.78;;
71368;SDS011;59175;53.214;5.728;2022-11-22T02:30:44;8.33;;;2.47;;
71368;SDS011;59175;53.214;5.728;2022-11-22T02:33:09;5.85;;;1.38;;
71368;SDS011;59175;53.214;5.728;2022-11-22T02:35:34;5.60;;;2.50;;
71368;SDS011;59175;53.214;5.728;2022-11-22T02:38:01;6.95;;;2.30;;
71368;SDS011;59175;53.214;5.728;2022-11-22T02:40:27;10.70;;;2.42;;
71368;SDS011;59175;53.214;5.728;2022-11-22T02:43:00;9.73;;;2.67;;
71368;SDS011;59175;53.214;5.728;2022-11-22T02:45:26;7.90;;;2.33;;
71368;SDS011;59175;53.214;5.728;2022-11-22T02:47:51;3.03;;;1.50;;
71368;SDS011;59175;53.214;5.728;2022-11-22T02:50:17;5.60;;;1.73;;
71368;SDS011;59175;53.214;5.728;2022-11-22T02:52:42;8.53;;;2.57;;
71368;SDS011;59175;53.214;5.728;2022-11-22T02:55:07;5.17;;;1.77;;
71368;SDS011;59175;53.214;5.728;2022-11-22T02:57:32;9.50;;;1.93;;
71368;SDS011;59175;53.214;5.728;2022-11-22T02:59:58;6.68;;;2.20;;
71368;SDS011;59175;53.214;5.728;2022-11-22T03:02:23;7.97;;;2.60;;
71368;SDS011;59175;53.214;5.728;2022-11-22T03:04:48;7.70;;;3.13;;
71368;SDS011;59175;53.214;5.728;2022-11-22T03:07:13;9.37;;;1.90;;
71368;SDS011;59175;53.214;5.728;2022-11-22T03:09:38;4.70;;;1.23;;
71368;SDS011;59175;53.214;5.728;2022-11-22T03:12:04;7.07;;;2.93;;
71368;SDS011;59175;53.214;5.728;2022-11-22T03:14:29;11.10;;;2.57;;
71368;SDS011;59175;53.214;5.728;2022-11-22T03:16:54;10.63;;;3.53;;
71368;SDS011;59175;53.214;5.728;2022-11-22T03:19:19;5.63;;;1.93;;
71368;SDS011;59175;53.214;5.728;2022-11-22T03:21:45;10.17;;;2.57;;
71368;SDS011;59175;53.214;5.728;2022-11-22T03:24:10;17.90;;;3.30;;
71368;SDS011;59175;53.214;5.728;2022-11-22T03:26:36;6.30;;;2.58;;
71368;SDS011;59175;53.214;5.728;2022-11-22T03:29:01;7.07;;;2.87;;
71368;SDS011;59175;53.214;5.728;2022-11-22T03:31:26;5.43;;;2.07;;
71368;SDS011;59175;53.214;5.728;2022-11-22T03:33:51;6.77;;;2.07;;
71368;SDS011;59175;53.214;5.728;2022-11-22T03:36:17;5.47;;;1.43;;
71368;SDS011;59175;53.214;5.728;2022-11-22T03:38:42;9.70;;;3.57;;
71368;SDS011;59175;53.214;5.728;2022-11-22T03:41:07;4.23;;;2.17;;
71368;SDS011;59175;53.214;5.728;2022-11-22T03:43:32;12.63;;;4.47;;
71368;SDS011;59175;53.214;5.728;2022-11-22T03:45:58;10.43;;;3.07;;
71368;SDS011;59175;53.214;5.728;2022-11-22T03:48:23;11.60;;;3.20;;
71368;SDS011;59175;53.214;5.728;2022-11-22T03:50:48;12.83;;;3.60;;
71368;SDS011;59175;53.214;5.728;2022-11-22T03:53:13;7.37;;;2.70;;
71368;SDS011;59175;53.214;5.728;2022-11-22T03:55:38;6.90;;;2.90;;
71368;SDS011;59175;53.214;5.728;2022-11-22T03:58:04;4.33;;;1.53;;
71368;SDS011;59175;53.214;5.728;2022-11-22T04:00:29;8.23;;;2.67;;
71368;SDS011;59175;53.214;5.728;2022-11-22T04:02:54;12.00;;;2.20;;
71368;SDS011;59175;53.214;5.728;2022-11-22T04:05:20;11.00;;;3.57;;
71368;SDS011;59175;53.214;5.728;2022-11-22T04:07:45;8.53;;;2.03;;
71368;SDS011;59175;53.214;5.728;2022-11-22T04:10:10;8.70;;;2.63;;
71368;SDS011;59175;53.214;5.728;2022-11-22T04:12:35;6.37;;;1.83;;
71368;SDS011;59175;53.214;5.728;2022-11-22T04:15:00;8.27;;;3.67;;
71368;SDS011;59175;53.214;5.728;2022-11-22T04:17:41;8.55;;;2.60;;
71368;SDS011;59175;53.214;5.728;2022-11-22T04:20:19;9.60;;;3.07;;
71368;SDS011;59175;53.214;5.728;2022-11-22T04:25:29;8.40;;;3.20;;
71368;SDS011;59175;53.214;5.728;2022-11-22T04:27:55;11.10;;;3.97;;
71368;SDS011;59175;53.214;5.728;2022-11-22T04:30:21;8.82;;;3.88;;
71368;SDS011;59175;53.214;5.728;2022-11-22T04:33:06;9.55;;;3.15;;
71368;SDS011;59175;53.214;5.728;2022-11-22T04:35:31;13.70;;;2.97;;
71368;SDS011;59175;53.214;5.728;2022-11-22T04:37:56;6.53;;;2.03;;
71368;SDS011;59175;53.214;5.728;2022-11-22T04:40:21;10.57;;;2.87;;
71368;SDS011;59175;53.214;5.728;2022-11-22T04:42:47;4.77;;;1.83;;
71368;SDS011;59175;53.214;5.728;2022-11-22T04:45:31;6.43;;;2.65;;
71368;SDS011;59175;53.214;5.728;2022-11-22T04:47:56;5.90;;;2.50;;
71368;SDS011;59175;53.214;5.728;2022-11-22T04:50:24;6.13;;;2.03;;
71368;SDS011;59175;53.214;5.728;2022-11-22T04:53:08;5.95;;;2.33;;
71368;SDS011;59175;53.214;5.728;2022-11-22T04:55:34;7.23;;;2.87;;
71368;SDS011;59175;53.214;5.728;2022-11-22T04:57:59;5.10;;;2.07;;
71368;SDS011;59175;53.214;5.728;2022-11-22T05:00:25;6.03;;;2.87;;
71368;SDS011;59175;53.214;5.728;2022-11-22T05:02:51;7.63;;;2.85;;
71368;SDS011;59175;53.214;5.728;2022-11-22T05:05:16;9.67;;;2.90;;
71368;SDS011;59175;53.214;5.728;2022-11-22T05:07:41;6.80;;;2.87;;
71368;SDS011;59175;53.214;5.728;2022-11-22T05:10:07;7.67;;;3.17;;
71368;SDS011;59175;53.214;5.728;2022-11-22T05:12:32;7.07;;;2.90;;
71368;SDS011;59175;53.214;5.728;2022-11-22T05:14:57;15.97;;;4.57;;
71368;SDS011;59175;53.214;5.728;2022-11-22T05:17:23;9.10;;;3.17;;
71368;SDS011;59175;53.214;5.728;2022-11-22T05:19:48;16.60;;;1.90;;
71368;SDS011;59175;53.214;5.728;2022-11-22T05:22:13;5.20;;;2.47;;
71368;SDS011;59175;53.214;5.728;2022-11-22T05:24:38;6.13;;;2.20;;
71368;SDS011;59175;53.214;5.728;2022-11-22T05:27:03;8.70;;;3.00;;
71368;SDS011;59175;53.214;5.728;2022-11-22T05:29:29;6.93;;;2.47;;
71368;SDS011;59175;53.214;5.728;2022-11-22T05:31:54;6.33;;;2.33;;
71368;SDS011;59175;53.214;5.728;2022-11-22T05:34:19;12.57;;;3.23;;
71368;SDS011;59175;53.214;5.728;2022-11-22T05:36:44;9.90;;;2.27;;
71368;SDS011;59175;53.214;5.728;2022-11-22T05:39:09;5.63;;;1.60;;
71368;SDS011;59175;53.214;5.728;2022-11-22T05:41:35;6.57;;;2.17;;
71368;SDS011;59175;53.214;5.728;2022-11-22T05:44:00;12.47;;;1.33;;
71368;SDS011;59175;53.214;5.728;2022-11-22T05:46:26;8.57;;;3.50;;
71368;SDS011;59175;53.214;5.728;2022-11-22T05:48:52;7.43;;;3.30;;
71368;SDS011;59175;53.214;5.728;2022-11-22T05:51:19;6.38;;;2.25;;
71368;SDS011;59175;53.214;5.728;2022-11-22T05:53:45;5.40;;;1.90;;
71368;SDS011;59175;53.214;5.728;2022-11-22T05:56:11;5.63;;;1.60;;
71368;SDS011;59175;53.214;5.728;2022-11-22T05:58:37;4.90;;;1.92;;
71368;SDS011;59175;53.214;5.728;2022-11-22T06:01:03;6.70;;;2.00;;
71368;SDS011;59175;53.214;5.728;2022-11-22T06:03:28;4.30;;;1.60;;
71368;SDS011;59175;53.214;5.728;2022-11-22T06:05:53;7.33;;;1.97;;
71368;SDS011;59175;53.214;5.728;2022-11-22T06:08:18;7.90;;;2.40;;
71368;SDS011;59175;53.214;5.728;2022-11-22T06:10:44;8.00;;;1.80;;
71368;SDS011;59175;53.214;5.728;2022-11-22T06:13:09;8.87;;;2.43;;
71368;SDS011;59175;53.214;5.728;2022-11-22T06:15:34;7.03;;;2.17;;
71368;SDS011;59175;53.214;5.728;2022-11-22T06:17:59;9.60;;;2.57;;
71368;SDS011;59175;53.214;5.728;2022-11-22T06:20:24;7.67;;;2.03;;
71368;SDS011;59175;53.214;5.728;2022-11-22T06:22:49;5.53;;;1.00;;
71368;SDS011;59175;53.214;5.728;2022-11-22T06:25:15;7.43;;;1.90;;
71368;SDS011;59175;53.214;5.728;2022-11-22T06:27:40;6.30;;;1.83;;
71368;SDS011;59175;53.214;5.728;2022-11-22T06:30:05;6.80;;;1.93;;
71368;SDS011;59175;53.214;5.728;2022-11-22T06:32:31;6.57;;;2.13;;
71368;SDS011;59175;53.214;5.728;2022-11-22T06:34:56;4.97;;;1.33;;
71368;SDS011;59175;53.214;5.728;2022-11-22T06:37:22;3.33;;;1.03;;
71368;SDS011;59175;53.214;5.728;2022-11-22T06:39:47;4.70;;;1.80;;
71368;SDS011;59175;53.214;5.728;2022-11-22T06:42:12;9.17;;;1.23;;
71368;SDS011;59175;53.214;5.728;2022-11-22T06:44:37;6.03;;;1.57;;
71368;SDS011;59175;53.214;5.728;2022-11-22T06:47:02;7.07;;;1.70;;
71368;SDS011;59175;53.214;5.728;2022-11-22T06:49:27;3.13;;;1.33;;
71368;SDS011;59175;53.214;5.728;2022-11-22T06:51:53;4.27;;;2.33;;
71368;SDS011;59175;53.214;5.728;2022-11-22T06:54:18;5.60;;;3.10;;
71368;SDS011;59175;53.214;5.728;2022-11-22T06:56:43;3.33;;;1.00;;
71368;SDS011;59175;53.214;5.728;2022-11-22T06:59:09;2.13;;;0.67;;
71368;SDS011;59175;53.214;5.728;2022-11-22T07:01:34;5.63;;;1.27;;
71368;SDS011;59175;53.214;5.728;2022-11-22T07:04:00;3.33;;;1.38;;
71368;SDS011;59175;53.214;5.728;2022-11-22T07:06:29;5.25;;;1.00;;
71368;SDS011;59175;53.214;5.728;2022-11-22T07:08:55;3.63;;;1.05;;
71368;SDS011;59175;53.214;5.728;2022-11-22T07:11:21;6.00;;;1.57;;
71368;SDS011;59175;53.214;5.728;2022-11-22T07:13:47;4.00;;;1.33;;
71368;SDS011;59175;53.214;5.728;2022-11-22T07:16:13;4.13;;;1.43;;
71368;SDS011;59175;53.214;5.728;2022-11-22T07:18:39;4.20;;;2.20;;
71368;SDS011;59175;53.214;5.728;2022-11-22T07:21:08;3.10;;;0.95;;
71368;SDS011;59175;53.214;5.728;2022-11-22T07:23:33;7.15;;;2.25;;
71368;SDS011;59175;53.214;5.728;2022-11-22T07:25:58;9.47;;;2.63;;
71368;SDS011;59175;53.214;5.728;2022-11-22T07:28:24;5.57;;;1.13;;
71368;SDS011;59175;53.214;5.728;2022-11-22T07:30:49;5.65;;;1.05;;
71368;SDS011;59175;53.214;5.728;2022-11-22T07:33:15;6.07;;;1.53;;
71368;SDS011;59175;53.214;5.728;2022-11-22T07:35:40;7.07;;;0.93;;
71368;SDS011;59175;53.214;5.728;2022-11-22T07:38:05;3.67;;;0.73;;
71368;SDS011;59175;53.214;5.728;2022-11-22T07:40:31;14.33;;;0.77;;
71368;SDS011;59175;53.214;5.728;2022-11-22T07:42:56;3.27;;;0.60;;
71368;SDS011;59175;53.214;5.728;2022-11-22T07:45:21;1.97;;;0.47;;
71368;SDS011;59175;53.214;5.728;2022-11-22T07:47:46;14.10;;;1.57;;
71368;SDS011;59175;53.214;5.728;2022-11-22T07:50:12;2.63;;;0.63;;
71368;SDS011;59175;53.214;5.728;2022-11-22T07:52:37;4.30;;;1.20;;
71368;SDS011;59175;53.214;5.728;2022-11-22T07:55:02;3.50;;;1.50;;
71368;SDS011;59175;53.214;5.728;2022-11-22T07:57:27;1.93;;;1.00;;
71368;SDS011;59175;53.214;5.728;2022-11-22T07:59:53;10.77;;;0.70;;
71368;SDS011;59175;53.214;5.728;2022-11-22T08:02:18;9.20;;;0.70;;
71368;SDS011;59175;53.214;5.728;2022-11-22T08:04:43;2.60;;;0.60;;
71368;SDS011;59175;53.214;5.728;2022-11-22T08:07:09;1.73;;;0.43;;
71368;SDS011;59175;53.214;5.728;2022-11-22T08:09:34;2.75;;;1.08;;
71368;SDS011;59175;53.214;5.728;2022-11-22T08:12:00;2.97;;;0.90;;
71368;SDS011;59175;53.214;5.728;2022-11-22T08:14:25;13.27;;;1.17;;
71368;SDS011;59175;53.214;5.728;2022-11-22T08:16:51;1.40;;;0.30;;
71368;SDS011;59175;53.214;5.728;2022-11-22T08:19:16;2.90;;;0.63;;
71368;SDS011;59175;53.214;5.728;2022-11-22T08:21:45;3.03;;;1.50;;
71368;SDS011;59175;53.214;5.728;2022-11-22T08:24:11;2.80;;;0.70;;
71368;SDS011;59175;53.214;5.728;2022-11-22T08:26:36;2.97;;;0.60;;
71368;SDS011;59175;53.214;5.728;2022-11-22T08:29:05;2.80;;;0.83;;
71368;SDS011;59175;53.214;5.728;2022-11-22T08:31:31;6.10;;;1.52;;
71368;SDS011;59175;53.214;5.728;2022-11-22T08:33:56;7.53;;;1.00;;
71368;SDS011;59175;53.214;5.728;2022-11-22T08:36:21;5.47;;;1.00;;
71368;SDS011;59175;53.214;5.728;2022-11-22T08:38:46;12.60;;;3.07;;
71368;SDS011;59175;53.214;5.728;2022-11-22T08:41:12;4.17;;;2.00;;
71368;SDS011;59175;53.214;5.728;2022-11-22T08:43:37;2.83;;;0.93;;
71368;SDS011;59175;53.214;5.728;2022-11-22T08:46:03;4.37;;;1.67;;
71368;SDS011;59175;53.214;5.728;2022-11-22T08:48:28;6.97;;;2.60;;
71368;SDS011;59175;53.214;5.728;2022-11-22T08:50:55;6.93;;;3.07;;
71368;SDS011;59175;53.214;5.728;2022-11-22T08:53:22;3.05;;;1.15;;
71368;SDS011;59175;53.214;5.728;2022-11-22T08:55:48;3.38;;;1.13;;
71368;SDS011;59175;53.214;5.728;2022-11-22T08:58:13;2.83;;;1.50;;
71368;SDS011;59175;53.214;5.728;2022-11-22T09:00:38;4.17;;;1.10;;
71368;SDS011;59175;53.214;5.728;2022-11-22T09:03:03;13.50;;;1.73;;
71368;SDS011;59175;53.214;5.728;2022-11-22T09:05:31;28.43;;;9.00;;
71368;SDS011;59175;53.214;5.728;2022-11-22T09:07:57;9.90;;;3.10;;
71368;SDS011;59175;53.214;5.728;2022-11-22T09:10:22;5.20;;;2.23;;
71368;SDS011;59175;53.214;5.728;2022-11-22T09:12:47;5.37;;;1.57;;
71368;SDS011;59175;53.214;5.728;2022-11-22T09:15:12;2.73;;;0.60;;
71368;SDS011;59175;53.214;5.728;2022-11-22T09:17:38;5.53;;;1.45;;
71368;SDS011;59175;53.214;5.728;2022-11-22T09:20:04;4.72;;;2.17;;
71368;SDS011;59175;53.214;5.728;2022-11-22T09:22:30;13.63;;;1.47;;
71368;SDS011;59175;53.214;5.728;2022-11-22T09:24:55;9.30;;;2.85;;
71368;SDS011;59175;53.214;5.728;2022-11-22T09:27:20;14.77;;;4.97;;
71368;SDS011;59175;53.214;5.728;2022-11-22T09:29:46;12.07;;;3.10;;
71368;SDS011;59175;53.214;5.728;2022-11-22T09:32:11;4.73;;;1.13;;
71368;SDS011;59175;53.214;5.728;2022-11-22T09:34:36;14.07;;;1.10;;
71368;SDS011;59175;53.214;5.728;2022-11-22T09:37:01;3.83;;;1.13;;
71368;SDS011;59175;53.214;5.728;2022-11-22T09:39:26;4.77;;;1.70;;
71368;SDS011;59175;53.214;5.728;2022-11-22T09:41:57;4.33;;;1.40;;
71368;SDS011;59175;53.214;5.728;2022-11-22T09:47:05;5.28;;;1.42;;
71368;SDS011;59175;53.214;5.728;2022-11-22T09:52:02;3.90;;;0.77;;
71368;SDS011;59175;53.214;5.728;2022-11-22T09:55:14;5.43;;;0.98;;
71368;SDS011;59175;53.214;5.728;2022-11-22T09:57:38;2.88;;;1.02;;
71368;SDS011;59175;53.214;5.728;2022-11-22T10:00:06;2.30;;;0.63;;
71368;SDS011;59175;53.214;5.728;2022-11-22T10:02:36;1.65;;;0.50;;
71368;SDS011;59175;53.214;5.728;2022-11-22T10:05:04;3.42;;;1.40;;
71368;SDS011;59175;53.214;5.728;2022-11-22T10:07:36;2.05;;;0.45;;
71368;SDS011;59175;53.214;5.728;2022-11-22T10:10:11;3.35;;;1.45;;
71368;SDS011;59175;53.214;5.728;2022-11-22T10:12:59;2.67;;;0.47;;
71368;SDS011;59175;53.214;5.728;2022-11-22T10:15:28;4.70;;;1.30;;
71368;SDS011;59175;53.214;5.728;2022-11-22T10:17:56;4.13;;;1.80;;
71368;SDS011;59175;53.214;5.728;2022-11-22T10:20:25;3.67;;;1.45;;
71368;SDS011;59175;53.214;5.728;2022-11-22T10:22:51;2.70;;;0.80;;
71368;SDS011;59175;53.214;5.728;2022-11-22T10:27:41;5.57;;;1.20;;
71368;SDS011;59175;53.214;5.728;2022-11-22T10:30:18;2.45;;;0.50;;
71368;SDS011;59175;53.214;5.728;2022-11-22T10:55:40;5.05;;;0.57;;
71368;SDS011;59175;53.214;5.728;2022-11-22T11:00:48;5.72;;;0.98;;
71368;SDS011;59175;53.214;5.728;2022-11-22T11:03:25;5.80;;;0.73;;
71368;SDS011;59175;53.214;5.728;2022-11-22T11:08:22;1.35;;;0.47;;
71368;SDS011;59175;53.214;5.728;2022-11-22T11:10:49;0.53;;;0.17;;
71368;SDS011;59175;53.214;5.728;2022-11-22T11:13:16;5.30;;;0.97;;
71368;SDS011;59175;53.214;5.728;2022-11-22T11:15:46;7.97;;;0.57;;
71368;SDS011;59175;53.214;5.728;2022-11-22T11:18:20;2.78;;;0.80;;
71368;SDS011;59175;53.214;5.728;2022-11-22T11:20:46;1.95;;;0.40;;
71368;SDS011;59175;53.214;5.728;2022-11-22T11:23:12;2.40;;;0.40;;
71368;SDS011;59175;53.214;5.728;2022-11-22T11:25:38;3.35;;;0.40;;
71368;SDS011;59175;53.214;5.728;2022-11-22T11:30:49;1.40;;;0.30;;
71368;SDS011;59175;53.214;5.728;2022-11-22T11:33:25;7.03;;;1.90;;
71368;SDS011;59175;53.214;5.728;2022-11-22T11:35:51;4.75;;;1.25;;
71368;SDS011;59175;53.214;5.728;2022-11-22T11:43:41;4.32;;;0.60;;
71368;SDS011;59175;53.214;5.728;2022-11-22T11:46:25;6.87;;;1.40;;
71368;SDS011;59175;53.214;5.728;2022-11-22T11:48:54;9.18;;;2.13;;
71368;SDS011;59175;53.214;5.728;2022-11-22T11:59:13;4.30;;;0.97;;
71368;SDS011;59175;53.214;5.728;2022-11-22T12:01:41;2.45;;;0.50;;
71368;SDS011;59175;53.214;5.728;2022-11-22T12:04:13;3.70;;;1.55;;
71368;SDS011;59175;53.214;5.728;2022-11-22T12:06:40;10.65;;;2.35;;
71368;SDS011;59175;53.214;5.728;2022-11-22T12:09:07;7.00;;;0.80;;
71368;SDS011;59175;53.214;5.728;2022-11-22T12:11:50;3.17;;;0.93;;
71368;SDS011;59175;53.214;5.728;2022-11-22T12:14:16;13.00;;;2.03;;
71368;SDS011;59175;53.214;5.728;2022-11-22T12:16:43;1.95;;;0.35;;
71368;SDS011;59175;53.214;5.728;2022-11-22T12:24:26;3.05;;;0.82;;
71368;SDS011;59175;53.214;5.728;2022-11-22T12:26:53;3.50;;;0.70;;
71368;SDS011;59175;53.214;5.728;2022-11-22T12:29:19;5.03;;;0.85;;
71368;SDS011;59175;53.214;5.728;2022-11-22T12:31:47;3.47;;;0.80;;
71368;SDS011;59175;53.214;5.728;2022-11-22T12:34:19;8.00;;;1.15;;
71368;SDS011;59175;53.214;5.728;2022-11-22T12:36:51;1.53;;;0.50;;
71368;SDS011;59175;53.214;5.728;2022-11-22T12:39:19;3.47;;;0.40;;
71368;SDS011;59175;53.214;5.728;2022-11-22T12:41:46;1.48;;;0.43;;
71368;SDS011;59175;53.214;5.728;2022-11-22T12:44:18;1.10;;;0.20;;
71368;SDS011;59175;53.214;5.728;2022-11-22T12:46:49;1.30;;;0.20;;
71368;SDS011;59175;53.214;5.728;2022-11-22T12:51:45;9.20;;;0.93;;
71368;SDS011;59175;53.214;5.728;2022-11-22T12:54:13;2.97;;;0.63;;
71368;SDS011;59175;53.214;5.728;2022-11-22T13:09:10;6.50;;;0.68;;
71368;SDS011;59175;53.214;5.728;2022-11-22T13:11:39;6.43;;;0.70;;
71368;SDS011;59175;53.214;5.728;2022-11-22T13:14:18;4.13;;;0.95;;
71368;SDS011;59175;53.214;5.728;2022-11-22T13:16:46;3.38;;;0.70;;
71368;SDS011;59175;53.214;5.728;2022-11-22T13:19:12;12.60;;;1.00;;
71368;SDS011;59175;53.214;5.728;2022-11-22T13:21:44;2.58;;;0.82;;
71368;SDS011;59175;53.214;5.728;2022-11-22T13:24:35;2.50;;;0.70;;
71368;SDS011;59175;53.214;5.728;2022-11-22T13:29:32;2.33;;;0.40;;
71368;SDS011;59175;53.214;5.728;2022-11-22T13:31:59;5.17;;;1.47;;
71368;SDS011;59175;53.214;5.728;2022-11-22T13:34:25;2.55;;;0.40;;
71368;SDS011;59175;53.214;5.728;2022-11-22T13:36:50;4.10;;;1.40;;
71368;SDS011;59175;53.214;5.728;2022-11-22T13:39:16;8.97;;;1.20;;
71368;SDS011;59175;53.214;5.728;2022-11-22T13:49:14;2.63;;;0.77;;
71368;SDS011;59175;53.214;5.728;2022-11-22T13:57:03;4.82;;;1.20;;
71368;SDS011;59175;53.214;5.728;2022-11-22T13:59:29;5.07;;;0.77;;
71368;SDS011;59175;53.214;5.728;2022-11-22T14:01:56;4.00;;;1.10;;
71368;SDS011;59175;53.214;5.728;2022-11-22T14:07:35;3.17;;;0.63;;
71368;SDS011;59175;53.214;5.728;2022-11-22T14:22:44;1.80;;;0.50;;
71368;SDS011;59175;53.214;5.728;2022-11-22T14:27:45;0.60;;;0.10;;
71368;SDS011;59175;53.214;5.728;2022-11-22T14:32:46;1.00;;;0.55;;
71368;SDS011;59175;53.214;5.728;2022-11-22T14:37:55;1.57;;;0.33;;
71368;SDS011;59175;53.214;5.728;2022-11-22T14:40:25;2.05;;;0.73;;
71368;SDS011;59175;53.214;5.728;2022-11-22T14:42:54;4.68;;;0.47;;
71368;SDS011;59175;53.214;5.728;2022-11-22T14:45:24;19.92;;;1.10;;
71368;SDS011;59175;53.214;5.728;2022-11-22T14:53:23;1.20;;;0.22;;
71368;SDS011;59175;53.214;5.728;2022-11-22T14:55:51;0.50;;;0.30;;
71368;SDS011;59175;53.214;5.728;2022-11-22T14:58:21;5.32;;;0.55;;
71368;SDS011;59175;53.214;5.728;2022-11-22T15:16:01;8.10;;;0.35;;
71368;SDS011;59175;53.214;5.728;2022-11-22T15:18:36;1.73;;;0.60;;
71368;SDS011;59175;53.214;5.728;2022-11-22T15:21:15;3.75;;;0.85;;
71368;SDS011;59175;53.214;5.728;2022-11-22T15:23:41;0.93;;;0.23;;
71368;SDS011;59175;53.214;5.728;2022-11-22T15:26:11;1.23;;;0.20;;
71368;SDS011;59175;53.214;5.728;2022-11-22T15:28:48;0.73;;;0.15;;
71368;SDS011;59175;53.214;5.728;2022-11-22T15:31:15;2.25;;;0.65;;
71368;SDS011;59175;53.214;5.728;2022-11-22T15:33:44;4.07;;;0.80;;
71368;SDS011;59175;53.214;5.728;2022-11-22T15:38:55;2.17;;;0.40;;
71368;SDS011;59175;53.214;5.728;2022-11-22T15:41:22;2.28;;;0.68;;
71368;SDS011;59175;53.214;5.728;2022-11-22T15:43:48;2.50;;;0.30;;
71368;SDS011;59175;53.214;5.728;2022-11-22T15:46:15;10.05;;;0.73;;
71368;SDS011;59175;53.214;5.728;2022-11-22T15:48:44;1.00;;;0.27;;
71368;SDS011;59175;53.214;5.728;2022-11-22T15:53:38;2.00;;;0.30;;
71368;SDS011;59175;53.214;5.728;2022-11-22T15:58:51;5.70;;;0.53;;
71368;SDS011;59175;53.214;5.728;2022-11-22T16:01:17;1.38;;;0.30;;
71368;SDS011;59175;53.214;5.728;2022-11-22T16:03:43;3.70;;;0.80;;
71368;SDS011;59175;53.214;5.728;2022-11-22T16:06:12;1.00;;;0.30;;
71368;SDS011;59175;53.214;5.728;2022-11-22T16:08:45;3.03;;;0.70;;
71368;SDS011;59175;53.214;5.728;2022-11-22T16:11:15;1.35;;;0.20;;
71368;SDS011;59175;53.214;5.728;2022-11-22T16:13:43;1.63;;;0.17;;
71368;SDS011;59175;53.214;5.728;2022-11-22T16:18:36;1.58;;;0.50;;
71368;SDS011;59175;53.214;5.728;2022-11-22T16:21:15;1.27;;;0.55;;
71368;SDS011;59175;53.214;5.728;2022-11-22T16:23:43;1.30;;;0.43;;
71368;SDS011;59175;53.214;5.728;2022-11-22T16:26:22;3.90;;;0.77;;
71368;SDS011;59175;53.214;5.728;2022-11-22T16:28:50;4.43;;;1.58;;
71368;SDS011;59175;53.214;5.728;2022-11-22T16:33:41;2.57;;;0.70;;
71368;SDS011;59175;53.214;5.728;2022-11-22T16:36:13;2.07;;;0.27;;
71368;SDS011;59175;53.214;5.728;2022-11-22T16:38:39;1.50;;;0.40;;
71368;SDS011;59175;53.214;5.728;2022-11-22T16:41:04;2.23;;;0.37;;
71368;SDS011;59175;53.214;5.728;2022-11-22T16:43:34;3.60;;;1.13;;
71368;SDS011;59175;53.214;5.728;2022-11-22T16:45:59;2.03;;;0.43;;
71368;SDS011;59175;53.214;5.728;2022-11-22T16:48:25;2.33;;;0.90;;
71368;SDS011;59175;53.214;5.728;2022-11-22T16:50:58;1.90;;;0.30;;
71368;SDS011;59175;53.214;5.728;2022-11-22T16:53:26;3.78;;;0.73;;
71368;SDS011;59175;53.214;5.728;2022-11-22T16:55:52;2.50;;;0.63;;
71368;SDS011;59175;53.214;5.728;2022-11-22T16:58:21;1.97;;;0.60;;
71368;SDS011;59175;53.214;5.728;2022-11-22T17:00:47;2.80;;;0.20;;
71368;SDS011;59175;53.214;5.728;2022-11-22T17:03:22;3.73;;;0.90;;
71368;SDS011;59175;53.214;5.728;2022-11-22T17:05:49;1.75;;;0.50;;
71368;SDS011;59175;53.214;5.728;2022-11-22T17:08:15;1.87;;;0.47;;
71368;SDS011;59175;53.214;5.728;2022-11-22T17:10:42;2.97;;;0.40;;
71368;SDS011;59175;53.214;5.728;2022-11-22T17:13:18;3.55;;;0.30;;
71368;SDS011;59175;53.214;5.728;2022-11-22T17:15:44;3.33;;;0.43;;
71368;SDS011;59175;53.214;5.728;2022-11-22T17:18:09;0.90;;;0.10;;